sensor_id;sensor_type;location;lat;lon;timestamp;temperature;humidity
14057;DHT22;7103;54.300;10.180;2022-12-29T00:02:20;8.50;1.00
14057;DHT22;7103;54.300;10.180;2022-12-29T00:04:49;8.50;1.00
14057;DHT22;7103;54.300;10.180;2022-12-29T00:07:17;8.60;1.00
14057;DHT22;7103;54.300;10.180;2022-12-29T00:09:44;8.60;1.00
14057;DHT22;7103;54.300;10.180;2022-12-29T00:12:11;8.80;1.00
14057;DHT22;7103;54.300;10.180;2022-12-29T00:14:38;8.70;1.00
14057;DHT22;7103;54.300;10.180;2022-12-29T00:17:23;8.70;1.00
14057;DHT22;7103;54.300;10.180;2022-12-29T00:19:50;8.70;1.00
14057;DHT22;7103;54.300;10.180;2022-12-29T00:22:35;8.70;1.00
14057;DHT22;7103;54.300;10.180;2022-12-29T00:25:20;8.80;1.00
14057;DHT22;7103;54.300;10.180;2022-12-29T00:28:08;8.80;1.00
14057;DHT22;7103;54.300;10.180;2022-12-29T00:30:58;8.80;1.00
14057;DHT22;7103;54.300;10.180;2022-12-29T00:33:44;8.80;1.00
14057;DHT22;7103;54.300;10.180;2022-12-29T00:36:34;8.90;1.00
14057;DHT22;7103;54.300;10.180;2022-12-29T00:39:07;8.90;1.00
14057;DHT22;7103;54.300;10.180;2022-12-29T00:41:53;8.90;1.00
14057;DHT22;7103;54.300;10.180;2022-12-29T00:44:39;8.90;1.00
14057;DHT22;7103;54.300;10.180;2022-12-29T00:47:06;8.90;1.00
14057;DHT22;7103;54.300;10.180;2022-12-29T00:49:33;8.90;1.00
14057;DHT22;7103;54.300;10.180;2022-12-29T00:52:07;9.00;1.00
14057;DHT22;7103;54.300;10.180;2022-12-29T00:54:39;9.00;1.00
14057;DHT22;7103;54.300;10.180;2022-12-29T00:57:08;9.00;1.00
14057;DHT22;7103;54.300;10.180;2022-12-29T00:59:36;9.00;1.00
14057;DHT22;7103;54.300;10.180;2022-12-29T01:02:03;9.00;1.00
14057;DHT22;7103;54.300;10.180;2022-12-29T01:04:31;9.10;1.00
14057;DHT22;7103;54.300;10.180;2022-12-29T01:06:58;9.10;1.00
14057;DHT22;7103;54.300;10.180;2022-12-29T01:09:25;9.10;1.00
14057;DHT22;7103;54.300;10.180;2022-12-29T01:12:11;9.10;1.00
14057;DHT22;7103;54.300;10.180;2022-12-29T01:14:38;9.10;1.00
14057;DHT22;7103;54.300;10.180;2022-12-29T01:17:05;9.20;1.00
14057;DHT22;7103;54.300;10.180;2022-12-29T01:19:33;9.20;1.00
14057;DHT22;7103;54.300;10.180;2022-12-29T01:22:00;9.20;1.00
14057;DHT22;7103;54.300;10.180;2022-12-29T01:24:27;9.30;1.00
14057;DHT22;7103;54.300;10.180;2022-12-29T01:26:54;9.20;1.00
14057;DHT22;7103;54.300;10.180;2022-12-29T01:29:21;9.30;1.00
14057;DHT22;7103;54.300;10.180;2022-12-29T01:31:48;9.30;1.00
14057;DHT22;7103;54.300;10.180;2022-12-29T01:34:17;9.30;1.00
14057;DHT22;7103;54.300;10.180;2022-12-29T01:36:43;9.30;1.00
14057;DHT22;7103;54.300;10.180;2022-12-29T01:39:10;9.30;1.00
14057;DHT22;7103;54.300;10.180;2022-12-29T01:41:37;9.40;1.00
14057;DHT22;7103;54.300;10.180;2022-12-29T01:47:29;9.30;1.00
14057;DHT22;7103;54.300;10.180;2022-12-29T01:50:01;9.40;1.00
14057;DHT22;7103;54.300;10.180;2022-12-29T01:52:31;9.30;1.00
14057;DHT22;7103;54.300;10.180;2022-12-29T01:55:00;9.30;1.00
14057;DHT22;7103;54.300;10.180;2022-12-29T01:57:34;9.60;1.00
14057;DHT22;7103;54.300;10.180;2022-12-29T02:00:06;9.40;1.00
14057;DHT22;7103;54.300;10.180;2022-12-29T02:02:35;9.40;1.00
14057;DHT22;7103;54.300;10.180;2022-12-29T02:05:33;9.40;1.00
14057;DHT22;7103;54.300;10.180;2022-12-29T02:07:57;9.50;1.00
14057;DHT22;7103;54.300;10.180;2022-12-29T02:10:26;9.50;1.00
14057;DHT22;7103;54.300;10.180;2022-12-29T02:12:54;9.50;1.00
14057;DHT22;7103;54.300;10.180;2022-12-29T02:41:23;9.50;1.00
14057;DHT22;7103;54.300;10.180;2022-12-29T02:44:02;9.60;1.00
14057;DHT22;7103;54.300;10.180;2022-12-29T02:49:17;9.50;1.00
14057;DHT22;7103;54.300;10.180;2022-12-29T02:52:19;9.50;1.00
14057;DHT22;7103;54.300;10.180;2022-12-29T02:54:49;9.60;1.00
14057;DHT22;7103;54.300;10.180;2022-12-29T03:00:06;9.60;1.00
14057;DHT22;7103;54.300;10.180;2022-12-29T03:12:34;9.60;1.00
14057;DHT22;7103;54.300;10.180;2022-12-29T03:15:06;9.70;1.00
14057;DHT22;7103;54.300;10.180;2022-12-29T03:18:04;9.70;1.00
14057;DHT22;7103;54.300;10.180;2022-12-29T03:20:43;9.70;1.00
14057;DHT22;7103;54.300;10.180;2022-12-29T03:23:13;9.70;1.00
14057;DHT22;7103;54.300;10.180;2022-12-29T03:25:44;9.70;1.00
14057;DHT22;7103;54.300;10.180;2022-12-29T03:28:21;9.70;1.00
14057;DHT22;7103;54.300;10.180;2022-12-29T03:30:49;9.60;1.00
14057;DHT22;7103;54.300;10.180;2022-12-29T03:33:20;9.70;1.00
14057;DHT22;7103;54.300;10.180;2022-12-29T03:35:51;9.70;1.00
14057;DHT22;7103;54.300;10.180;2022-12-29T03:38:59;9.80;1.00
14057;DHT22;7103;54.300;10.180;2022-12-29T03:41:30;9.70;1.00
14057;DHT22;7103;54.300;10.180;2022-12-29T03:43:58;9.80;1.00
14057;DHT22;7103;54.300;10.180;2022-12-29T03:46:24;9.80;1.00
14057;DHT22;7103;54.300;10.180;2022-12-29T03:48:51;10.10;1.00
14057;DHT22;7103;54.300;10.180;2022-12-29T03:51:18;9.90;1.00
14057;DHT22;7103;54.300;10.180;2022-12-29T03:53:45;9.90;1.00
14057;DHT22;7103;54.300;10.180;2022-12-29T03:56:12;10.00;1.00
14057;DHT22;7103;54.300;10.180;2022-12-29T03:58:39;9.90;1.00
14057;DHT22;7103;54.300;10.180;2022-12-29T04:01:06;9.90;1.00
14057;DHT22;7103;54.300;10.180;2022-12-29T04:03:33;10.00;1.00
14057;DHT22;7103;54.300;10.180;2022-12-29T04:06:00;10.00;1.00
14057;DHT22;7103;54.300;10.180;2022-12-29T04:08:27;10.10;1.00
14057;DHT22;7103;54.300;10.180;2022-12-29T04:10:54;10.10;1.00
14057;DHT22;7103;54.300;10.180;2022-12-29T04:13:21;10.10;1.00
14057;DHT22;7103;54.300;10.180;2022-12-29T04:15:48;10.00;1.00
14057;DHT22;7103;54.300;10.180;2022-12-29T04:18:15;10.10;1.00
14057;DHT22;7103;54.300;10.180;2022-12-29T04:20:44;10.10;1.00
14057;DHT22;7103;54.300;10.180;2022-12-29T04:23:30;10.10;1.00
14057;DHT22;7103;54.300;10.180;2022-12-29T04:25:57;10.10;1.00
14057;DHT22;7103;54.300;10.180;2022-12-29T04:28:24;10.10;1.00
14057;DHT22;7103;54.300;10.180;2022-12-29T04:30:51;10.10;1.00
14057;DHT22;7103;54.300;10.180;2022-12-29T04:33:19;10.00;1.00
14057;DHT22;7103;54.300;10.180;2022-12-29T04:35:46;10.10;1.00
14057;DHT22;7103;54.300;10.180;2022-12-29T04:38:14;10.30;1.00
14057;DHT22;7103;54.300;10.180;2022-12-29T04:40:42;10.10;1.00
14057;DHT22;7103;54.300;10.180;2022-12-29T04:43:09;10.20;1.00
14057;DHT22;7103;54.300;10.180;2022-12-29T04:45:36;10.00;1.00
14057;DHT22;7103;54.300;10.180;2022-12-29T04:48:03;10.10;1.00
14057;DHT22;7103;54.300;10.180;2022-12-29T04:50:30;10.10;1.00
14057;DHT22;7103;54.300;10.180;2022-12-29T04:52:57;10.10;1.00
14057;DHT22;7103;54.300;10.180;2022-12-29T04:55:24;10.10;1.00
14057;DHT22;7103;54.300;10.180;2022-12-29T04:57:51;10.10;1.00
14057;DHT22;7103;54.300;10.180;2022-12-29T05:00:18;10.10;1.00
14057;DHT22;7103;54.300;10.180;2022-12-29T05:02:45;10.10;1.00
14057;DHT22;7103;54.300;10.180;2022-12-29T05:05:12;10.20;1.00
14057;DHT22;7103;54.300;10.180;2022-12-29T05:07:40;10.20;1.00
14057;DHT22;7103;54.300;10.180;2022-12-29T05:10:07;10.20;1.00
14057;DHT22;7103;54.300;10.180;2022-12-29T05:12:36;10.20;1.00
14057;DHT22;7103;54.300;10.180;2022-12-29T05:15:04;10.30;1.00
14057;DHT22;7103;54.300;10.180;2022-12-29T05:17:31;10.20;1.00
14057;DHT22;7103;54.300;10.180;2022-12-29T05:19:58;10.20;1.00
14057;DHT22;7103;54.300;10.180;2022-12-29T05:22:25;10.40;1.00
14057;DHT22;7103;54.300;10.180;2022-12-29T05:24:52;10.20;1.00
14057;DHT22;7103;54.300;10.180;2022-12-29T05:27:19;10.20;1.00
14057;DHT22;7103;54.300;10.180;2022-12-29T05:29:45;10.20;1.00
14057;DHT22;7103;54.300;10.180;2022-12-29T05:32:13;10.30;1.00
14057;DHT22;7103;54.300;10.180;2022-12-29T05:34:40;10.40;1.00
14057;DHT22;7103;54.300;10.180;2022-12-29T05:37:07;10.30;1.00
14057;DHT22;7103;54.300;10.180;2022-12-29T05:39:33;10.30;1.00
14057;DHT22;7103;54.300;10.180;2022-12-29T05:42:00;10.30;1.00
14057;DHT22;7103;54.300;10.180;2022-12-29T05:44:27;10.20;1.00
14057;DHT22;7103;54.300;10.180;2022-12-29T05:46:54;10.20;1.00
14057;DHT22;7103;54.300;10.180;2022-12-29T05:49:21;10.20;1.00
14057;DHT22;7103;54.300;10.180;2022-12-29T05:51:48;10.20;1.00
14057;DHT22;7103;54.300;10.180;2022-12-29T05:54:14;10.20;1.00
14057;DHT22;7103;54.300;10.180;2022-12-29T05:56:41;10.20;1.00
14057;DHT22;7103;54.300;10.180;2022-12-29T05:59:08;10.30;1.00
14057;DHT22;7103;54.300;10.180;2022-12-29T06:01:35;10.20;1.00
14057;DHT22;7103;54.300;10.180;2022-12-29T06:04:02;10.30;1.00
14057;DHT22;7103;54.300;10.180;2022-12-29T06:06:29;10.40;1.00
14057;DHT22;7103;54.300;10.180;2022-12-29T06:08:56;10.20;1.00
14057;DHT22;7103;54.300;10.180;2022-12-29T06:11:23;10.20;1.00
14057;DHT22;7103;54.300;10.180;2022-12-29T06:13:50;10.50;1.00
14057;DHT22;7103;54.300;10.180;2022-12-29T06:16:17;10.30;1.00
14057;DHT22;7103;54.300;10.180;2022-12-29T06:18:45;10.30;1.00
14057;DHT22;7103;54.300;10.180;2022-12-29T06:21:12;10.30;1.00
14057;DHT22;7103;54.300;10.180;2022-12-29T06:23:38;10.30;1.00
14057;DHT22;7103;54.300;10.180;2022-12-29T06:26:05;10.10;1.00
14057;DHT22;7103;54.300;10.180;2022-12-29T06:28:32;10.20;1.00
14057;DHT22;7103;54.300;10.180;2022-12-29T06:30:59;10.20;1.00
14057;DHT22;7103;54.300;10.180;2022-12-29T06:33:29;10.20;1.00
14057;DHT22;7103;54.300;10.180;2022-12-29T06:35:56;10.20;1.00
14057;DHT22;7103;54.300;10.180;2022-12-29T06:38:23;10.20;1.00
14057;DHT22;7103;54.300;10.180;2022-12-29T06:40:50;10.10;1.00
14057;DHT22;7103;54.300;10.180;2022-12-29T06:43:16;10.20;1.00
14057;DHT22;7103;54.300;10.180;2022-12-29T06:45:43;10.20;1.00
14057;DHT22;7103;54.300;10.180;2022-12-29T06:48:10;10.20;1.00
14057;DHT22;7103;54.300;10.180;2022-12-29T06:50:37;10.30;1.00
14057;DHT22;7103;54.300;10.180;2022-12-29T06:53:04;10.20;1.00
14057;DHT22;7103;54.300;10.180;2022-12-29T06:55:31;10.20;1.00
14057;DHT22;7103;54.300;10.180;2022-12-29T06:57:58;10.20;1.00
14057;DHT22;7103;54.300;10.180;2022-12-29T07:00:25;10.20;1.00
14057;DHT22;7103;54.300;10.180;2022-12-29T07:02:55;10.20;1.00
14057;DHT22;7103;54.300;10.180;2022-12-29T07:05:22;10.30;1.00
14057;DHT22;7103;54.300;10.180;2022-12-29T07:07:49;10.30;1.00
14057;DHT22;7103;54.300;10.180;2022-12-29T07:10:15;10.30;1.00
14057;DHT22;7103;54.300;10.180;2022-12-29T07:12:42;10.30;1.00
14057;DHT22;7103;54.300;10.180;2022-12-29T07:15:09;10.30;1.00
14057;DHT22;7103;54.300;10.180;2022-12-29T07:17:36;10.30;1.00
14057;DHT22;7103;54.300;10.180;2022-12-29T07:20:04;10.40;1.00
14057;DHT22;7103;54.300;10.180;2022-12-29T07:22:31;10.40;1.00
14057;DHT22;7103;54.300;10.180;2022-12-29T07:24:58;10.40;1.00
14057;DHT22;7103;54.300;10.180;2022-12-29T07:27:24;10.40;1.00
14057;DHT22;7103;54.300;10.180;2022-12-29T07:29:51;10.30;1.00
14057;DHT22;7103;54.300;10.180;2022-12-29T07:32:18;10.30;1.00
14057;DHT22;7103;54.300;10.180;2022-12-29T07:34:45;10.30;1.00
14057;DHT22;7103;54.300;10.180;2022-12-29T07:37:17;10.30;1.00
14057;DHT22;7103;54.300;10.180;2022-12-29T07:39:44;10.30;1.00
14057;DHT22;7103;54.300;10.180;2022-12-29T07:42:11;10.20;1.00
14057;DHT22;7103;54.300;10.180;2022-12-29T07:44:38;10.20;1.00
14057;DHT22;7103;54.300;10.180;2022-12-29T07:47:05;10.20;1.00
14057;DHT22;7103;54.300;10.180;2022-12-29T07:49:32;10.30;1.00
14057;DHT22;7103;54.300;10.180;2022-12-29T07:51:59;10.30;1.00
14057;DHT22;7103;54.300;10.180;2022-12-29T07:54:26;10.30;1.00
14057;DHT22;7103;54.300;10.180;2022-12-29T07:56:53;10.30;1.00
14057;DHT22;7103;54.300;10.180;2022-12-29T07:59:19;10.30;1.00
14057;DHT22;7103;54.300;10.180;2022-12-29T08:01:46;10.30;1.00
14057;DHT22;7103;54.300;10.180;2022-12-29T08:04:13;10.30;1.00
14057;DHT22;7103;54.300;10.180;2022-12-29T08:06:40;10.30;1.00
14057;DHT22;7103;54.300;10.180;2022-12-29T08:09:08;10.30;1.00
14057;DHT22;7103;54.300;10.180;2022-12-29T08:11:44;10.40;1.00
14057;DHT22;7103;54.300;10.180;2022-12-29T08:14:10;10.40;1.00
14057;DHT22;7103;54.300;10.180;2022-12-29T08:16:37;10.30;1.00
14057;DHT22;7103;54.300;10.180;2022-12-29T08:19:04;10.50;1.00
14057;DHT22;7103;54.300;10.180;2022-12-29T08:21:31;10.30;1.00
14057;DHT22;7103;54.300;10.180;2022-12-29T08:23:59;10.30;1.00
14057;DHT22;7103;54.300;10.180;2022-12-29T08:26:26;10.30;1.00
14057;DHT22;7103;54.300;10.180;2022-12-29T08:28:54;10.30;1.00
14057;DHT22;7103;54.300;10.180;2022-12-29T08:31:22;10.40;1.00
14057;DHT22;7103;54.300;10.180;2022-12-29T08:33:50;10.30;1.00
14057;DHT22;7103;54.300;10.180;2022-12-29T08:36:17;10.30;1.00
14057;DHT22;7103;54.300;10.180;2022-12-29T08:38:44;10.30;1.00
14057;DHT22;7103;54.300;10.180;2022-12-29T08:41:11;10.20;1.00
14057;DHT22;7103;54.300;10.180;2022-12-29T08:43:38;10.50;1.00
14057;DHT22;7103;54.300;10.180;2022-12-29T08:46:05;10.30;1.00
14057;DHT22;7103;54.300;10.180;2022-12-29T08:48:32;10.40;99.90
14057;DHT22;7103;54.300;10.180;2022-12-29T08:50:59;10.40;99.90
14057;DHT22;7103;54.300;10.180;2022-12-29T08:53:25;10.30;99.90
14057;DHT22;7103;54.300;10.180;2022-12-29T08:55:58;10.30;99.90
14057;DHT22;7103;54.300;10.180;2022-12-29T08:58:31;10.30;99.90
14057;DHT22;7103;54.300;10.180;2022-12-29T09:00:59;10.30;99.90
14057;DHT22;7103;54.300;10.180;2022-12-29T09:03:26;10.30;99.90
14057;DHT22;7103;54.300;10.180;2022-12-29T09:06:14;10.30;99.90
14057;DHT22;7103;54.300;10.180;2022-12-29T09:08:42;10.30;99.90
14057;DHT22;7103;54.300;10.180;2022-12-29T09:11:11;10.30;99.90
14057;DHT22;7103;54.300;10.180;2022-12-29T09:13:38;10.60;99.90
14057;DHT22;7103;54.300;10.180;2022-12-29T09:16:05;10.40;99.90
14057;DHT22;7103;54.300;10.180;2022-12-29T09:18:33;10.60;1.00
14057;DHT22;7103;54.300;10.180;2022-12-29T09:21:04;10.60;1.00
14057;DHT22;7103;54.300;10.180;2022-12-29T09:23:32;10.60;1.00
14057;DHT22;7103;54.300;10.180;2022-12-29T09:25:59;10.60;99.90
14057;DHT22;7103;54.300;10.180;2022-12-29T09:28:26;10.60;99.90
14057;DHT22;7103;54.300;10.180;2022-12-29T09:30:56;10.50;99.90
14057;DHT22;7103;54.300;10.180;2022-12-29T09:33:24;10.40;99.90
14057;DHT22;7103;54.300;10.180;2022-12-29T09:35:58;10.40;99.90
14057;DHT22;7103;54.300;10.180;2022-12-29T09:38:26;10.40;99.90
14057;DHT22;7103;54.300;10.180;2022-12-29T09:41:48;10.40;99.90
14057;DHT22;7103;54.300;10.180;2022-12-29T09:46:40;10.50;99.90
14057;DHT22;7103;54.300;10.180;2022-12-29T09:49:25;10.50;99.90
14057;DHT22;7103;54.300;10.180;2022-12-29T09:51:55;10.50;99.90
14057;DHT22;7103;54.300;10.180;2022-12-29T09:54:39;10.50;99.90
14057;DHT22;7103;54.300;10.180;2022-12-29T09:57:16;10.40;99.90
14057;DHT22;7103;54.300;10.180;2022-12-29T09:59:45;10.60;99.90
14057;DHT22;7103;54.300;10.180;2022-12-29T10:02:29;10.50;99.90
14057;DHT22;7103;54.300;10.180;2022-12-29T10:04:58;10.50;99.90
14057;DHT22;7103;54.300;10.180;2022-12-29T10:10:38;10.60;99.90
14057;DHT22;7103;54.300;10.180;2022-12-29T10:23:50;10.60;99.90
14057;DHT22;7103;54.300;10.180;2022-12-29T10:26:20;10.60;99.90
14057;DHT22;7103;54.300;10.180;2022-12-29T10:28:59;10.60;99.90
14057;DHT22;7103;54.300;10.180;2022-12-29T10:31:46;10.70;99.90
14057;DHT22;7103;54.300;10.180;2022-12-29T10:36:58;10.70;99.90
14057;DHT22;7103;54.300;10.180;2022-12-29T10:39:50;10.70;99.90
14057;DHT22;7103;54.300;10.180;2022-12-29T10:42:37;10.70;99.90
14057;DHT22;7103;54.300;10.180;2022-12-29T10:45:13;10.70;99.90
14057;DHT22;7103;54.300;10.180;2022-12-29T10:48:14;10.80;99.90
14057;DHT22;7103;54.300;10.180;2022-12-29T10:50:42;10.80;99.90
14057;DHT22;7103;54.300;10.180;2022-12-29T10:53:18;10.80;99.90
14057;DHT22;7103;54.300;10.180;2022-12-29T10:55:47;10.80;99.90
14057;DHT22;7103;54.300;10.180;2022-12-29T10:58:14;10.80;99.90
14057;DHT22;7103;54.300;10.180;2022-12-29T11:00:43;10.80;99.90
14057;DHT22;7103;54.300;10.180;2022-12-29T11:06:22;10.80;99.90
14057;DHT22;7103;54.300;10.180;2022-12-29T11:09:07;10.80;99.90
14057;DHT22;7103;54.300;10.180;2022-12-29T11:11:36;10.80;99.90
14057;DHT22;7103;54.300;10.180;2022-12-29T11:16:41;10.70;99.90
14057;DHT22;7103;54.300;10.180;2022-12-29T11:19:22;10.80;99.90
14057;DHT22;7103;54.300;10.180;2022-12-29T11:21:49;10.80;99.90
14057;DHT22;7103;54.300;10.180;2022-12-29T11:24:25;10.80;99.90
14057;DHT22;7103;54.300;10.180;2022-12-29T11:27:13;10.70;99.90
14057;DHT22;7103;54.300;10.180;2022-12-29T11:29:43;10.50;99.90
14057;DHT22;7103;54.300;10.180;2022-12-29T11:32:21;10.60;99.90
14057;DHT22;7103;54.300;10.180;2022-12-29T11:34:55;10.50;99.90
14057;DHT22;7103;54.300;10.180;2022-12-29T11:37:29;10.70;99.90
14057;DHT22;7103;54.300;10.180;2022-12-29T11:40:16;10.50;99.90
14057;DHT22;7103;54.300;10.180;2022-12-29T11:43:03;10.50;99.90
14057;DHT22;7103;54.300;10.180;2022-12-29T11:45:35;10.50;99.90
14057;DHT22;7103;54.300;10.180;2022-12-29T11:48:19;10.40;99.90
14057;DHT22;7103;54.300;10.180;2022-12-29T11:50:53;10.50;99.90
14057;DHT22;7103;54.300;10.180;2022-12-29T11:53:28;10.50;99.90
14057;DHT22;7103;54.300;10.180;2022-12-29T11:55:59;10.40;99.90
14057;DHT22;7103;54.300;10.180;2022-12-29T11:58:36;10.40;99.90
14057;DHT22;7103;54.300;10.180;2022-12-29T12:03:36;10.40;99.90
14057;DHT22;7103;54.300;10.180;2022-12-29T12:06:07;10.50;99.90
14057;DHT22;7103;54.300;10.180;2022-12-29T12:08:59;10.40;99.90
14057;DHT22;7103;54.300;10.180;2022-12-29T12:11:34;10.50;99.90
14057;DHT22;7103;54.300;10.180;2022-12-29T12:14:31;10.60;99.90
14057;DHT22;7103;54.300;10.180;2022-12-29T12:17:10;10.50;99.90
14057;DHT22;7103;54.300;10.180;2022-12-29T12:19:56;10.50;99.90
14057;DHT22;7103;54.300;10.180;2022-12-29T12:22:39;10.30;99.90
14057;DHT22;7103;54.300;10.180;2022-12-29T12:25:21;10.30;99.90
14057;DHT22;7103;54.300;10.180;2022-12-29T12:28:09;10.30;99.90
14057;DHT22;7103;54.300;10.180;2022-12-29T12:30:44;10.30;99.90
14057;DHT22;7103;54.300;10.180;2022-12-29T12:33:36;10.30;99.90
14057;DHT22;7103;54.300;10.180;2022-12-29T12:36:32;10.40;99.90
14057;DHT22;7103;54.300;10.180;2022-12-29T12:42:00;10.30;99.90
14057;DHT22;7103;54.300;10.180;2022-12-29T13:01:17;10.00;99.90
14057;DHT22;7103;54.300;10.180;2022-12-29T13:09:41;9.90;99.90
14057;DHT22;7103;54.300;10.180;2022-12-29T13:18:13;9.80;99.90
14057;DHT22;7103;54.300;10.180;2022-12-29T13:21:06;9.70;99.90
14057;DHT22;7103;54.300;10.180;2022-12-29T13:29:20;9.70;99.90
14057;DHT22;7103;54.300;10.180;2022-12-29T13:34:45;9.60;99.90
14057;DHT22;7103;54.300;10.180;2022-12-29T13:37:18;9.60;99.90
14057;DHT22;7103;54.300;10.180;2022-12-29T13:39:55;9.50;99.90
14057;DHT22;7103;54.300;10.180;2022-12-29T13:42:24;9.50;99.90
14057;DHT22;7103;54.300;10.180;2022-12-29T13:45:01;9.50;1.00
14057;DHT22;7103;54.300;10.180;2022-12-29T13:47:37;9.50;1.00
14057;DHT22;7103;54.300;10.180;2022-12-29T13:50:13;9.50;1.00
14057;DHT22;7103;54.300;10.180;2022-12-29T13:58:25;9.40;99.90
14057;DHT22;7103;54.300;10.180;2022-12-29T14:03:59;9.40;99.90
14057;DHT22;7103;54.300;10.180;2022-12-29T14:06:32;9.40;99.90
14057;DHT22;7103;54.300;10.180;2022-12-29T14:09:04;9.30;99.90
14057;DHT22;7103;54.300;10.180;2022-12-29T14:11:37;9.30;99.90
14057;DHT22;7103;54.300;10.180;2022-12-29T14:14:21;9.30;99.90
14057;DHT22;7103;54.300;10.180;2022-12-29T14:16:48;9.30;99.90
14057;DHT22;7103;54.300;10.180;2022-12-29T14:19:19;9.40;99.90
14057;DHT22;7103;54.300;10.180;2022-12-29T14:22:02;9.30;99.90
14057;DHT22;7103;54.300;10.180;2022-12-29T14:27:00;9.30;99.90
14057;DHT22;7103;54.300;10.180;2022-12-29T14:31:56;9.30;99.90
14057;DHT22;7103;54.300;10.180;2022-12-29T14:34:27;9.30;99.90
14057;DHT22;7103;54.300;10.180;2022-12-29T14:37:00;9.30;99.90
14057;DHT22;7103;54.300;10.180;2022-12-29T14:39:41;9.30;99.90
14057;DHT22;7103;54.300;10.180;2022-12-29T14:42:15;9.40;99.90
14057;DHT22;7103;54.300;10.180;2022-12-29T14:47:35;9.30;99.90
14057;DHT22;7103;54.300;10.180;2022-12-29T14:52:31;9.30;99.90
14057;DHT22;7103;54.300;10.180;2022-12-29T14:57:47;9.30;99.90
14057;DHT22;7103;54.300;10.180;2022-12-29T15:00:19;9.30;99.90
14057;DHT22;7103;54.300;10.180;2022-12-29T15:05:49;9.30;99.90
14057;DHT22;7103;54.300;10.180;2022-12-29T15:08:22;9.30;99.90
14057;DHT22;7103;54.300;10.180;2022-12-29T15:10:59;9.30;99.90
14057;DHT22;7103;54.300;10.180;2022-12-29T15:13:35;9.30;99.90
14057;DHT22;7103;54.300;10.180;2022-12-29T15:16:02;9.20;99.90
14057;DHT22;7103;54.300;10.180;2022-12-29T15:18:31;9.20;99.90
14057;DHT22;7103;54.300;10.180;2022-12-29T15:21:01;9.30;99.90
14057;DHT22;7103;54.300;10.180;2022-12-29T15:23:30;9.30;99.90
14057;DHT22;7103;54.300;10.180;2022-12-29T15:26:00;9.30;99.90
14057;DHT22;7103;54.300;10.180;2022-12-29T15:28:40;9.30;99.90
14057;DHT22;7103;54.300;10.180;2022-12-29T15:31:13;9.20;99.90
14057;DHT22;7103;54.300;10.180;2022-12-29T15:33:43;9.30;99.90
14057;DHT22;7103;54.300;10.180;2022-12-29T15:36:23;9.20;99.90
14057;DHT22;7103;54.300;10.180;2022-12-29T15:38:50;9.20;99.90
14057;DHT22;7103;54.300;10.180;2022-12-29T15:41:39;9.30;99.90
14057;DHT22;7103;54.300;10.180;2022-12-29T15:46:57;9.20;99.90
14057;DHT22;7103;54.300;10.180;2022-12-29T15:49:24;9.20;99.90
14057;DHT22;7103;54.300;10.180;2022-12-29T15:51:58;9.20;99.90
14057;DHT22;7103;54.300;10.180;2022-12-29T15:54:27;9.20;99.90
14057;DHT22;7103;54.300;10.180;2022-12-29T15:56:56;9.10;99.90
14057;DHT22;7103;54.300;10.180;2022-12-29T15:59:26;9.10;99.90
14057;DHT22;7103;54.300;10.180;2022-12-29T16:01:58;9.10;99.90
14057;DHT22;7103;54.300;10.180;2022-12-29T16:04:29;9.10;99.90
14057;DHT22;7103;54.300;10.180;2022-12-29T16:07:01;9.00;99.90
14057;DHT22;7103;54.300;10.180;2022-12-29T16:12:21;9.00;99.90
14057;DHT22;7103;54.300;10.180;2022-12-29T16:14:56;9.00;99.90
14057;DHT22;7103;54.300;10.180;2022-12-29T16:17:27;9.00;99.90
14057;DHT22;7103;54.300;10.180;2022-12-29T16:20:21;8.90;99.90
14057;DHT22;7103;54.300;10.180;2022-12-29T16:22:53;8.90;99.90
14057;DHT22;7103;54.300;10.180;2022-12-29T16:25:34;8.90;99.90
14057;DHT22;7103;54.300;10.180;2022-12-29T16:28:16;8.90;99.90
14057;DHT22;7103;54.300;10.180;2022-12-29T16:30:43;8.90;99.90
14057;DHT22;7103;54.300;10.180;2022-12-29T16:33:54;8.90;99.90
14057;DHT22;7103;54.300;10.180;2022-12-29T16:36:27;8.90;99.90
14057;DHT22;7103;54.300;10.180;2022-12-29T16:41:42;8.80;99.90
14057;DHT22;7103;54.300;10.180;2022-12-29T16:44:29;8.70;99.90
14057;DHT22;7103;54.300;10.180;2022-12-29T16:49:31;8.50;99.90
14057;DHT22;7103;54.300;10.180;2022-12-29T16:51:59;8.50;99.90
14057;DHT22;7103;54.300;10.180;2022-12-29T16:54:35;8.50;99.90
14057;DHT22;7103;54.300;10.180;2022-12-29T16:57:03;8.50;99.90
14057;DHT22;7103;54.300;10.180;2022-12-29T16:59:36;8.50;99.90
14057;DHT22;7103;54.300;10.180;2022-12-29T17:02:16;8.50;99.90
14057;DHT22;7103;54.300;10.180;2022-12-29T17:04:45;8.50;99.90
14057;DHT22;7103;54.300;10.180;2022-12-29T17:07:17;8.40;99.90
14057;DHT22;7103;54.300;10.180;2022-12-29T17:09:44;8.30;99.90
14057;DHT22;7103;54.300;10.180;2022-12-29T17:12:15;8.40;99.90
14057;DHT22;7103;54.300;10.180;2022-12-29T17:15:17;8.40;99.90
14057;DHT22;7103;54.300;10.180;2022-12-29T17:17:46;8.30;99.90
14057;DHT22;7103;54.300;10.180;2022-12-29T17:20:17;8.20;99.90
14057;DHT22;7103;54.300;10.180;2022-12-29T17:22:45;8.20;99.90
14057;DHT22;7103;54.300;10.180;2022-12-29T17:25:17;8.30;99.90
14057;DHT22;7103;54.300;10.180;2022-12-29T17:27:55;8.20;99.90
14057;DHT22;7103;54.300;10.180;2022-12-29T17:30:24;8.20;99.90
14057;DHT22;7103;54.300;10.180;2022-12-29T17:33:01;8.30;99.90
14057;DHT22;7103;54.300;10.180;2022-12-29T17:35:29;8.30;99.90
14057;DHT22;7103;54.300;10.180;2022-12-29T17:37:56;8.30;99.90
14057;DHT22;7103;54.300;10.180;2022-12-29T17:40:29;8.30;99.90
14057;DHT22;7103;54.300;10.180;2022-12-29T17:42:58;8.30;99.90
14057;DHT22;7103;54.300;10.180;2022-12-29T17:45:28;8.30;99.90
14057;DHT22;7103;54.300;10.180;2022-12-29T17:47:56;8.30;99.90
14057;DHT22;7103;54.300;10.180;2022-12-29T17:50:27;8.30;99.90
14057;DHT22;7103;54.300;10.180;2022-12-29T17:52:57;8.30;99.90
14057;DHT22;7103;54.300;10.180;2022-12-29T17:55:27;8.30;99.90
14057;DHT22;7103;54.300;10.180;2022-12-29T17:58:18;8.30;99.90
14057;DHT22;7103;54.300;10.180;2022-12-29T18:00:50;8.40;99.90
14057;DHT22;7103;54.300;10.180;2022-12-29T18:03:21;8.40;99.90
14057;DHT22;7103;54.300;10.180;2022-12-29T18:05:49;8.30;99.90
14057;DHT22;7103;54.300;10.180;2022-12-29T18:08:16;8.40;99.90
14057;DHT22;7103;54.300;10.180;2022-12-29T18:10:43;8.40;99.90
14057;DHT22;7103;54.300;10.180;2022-12-29T18:13:31;8.40;99.90
14057;DHT22;7103;54.300;10.180;2022-12-29T18:16:12;8.50;99.90
14057;DHT22;7103;54.300;10.180;2022-12-29T18:18:39;8.50;99.90
14057;DHT22;7103;54.300;10.180;2022-12-29T18:21:14;8.50;99.90
14057;DHT22;7103;54.300;10.180;2022-12-29T18:23:42;8.50;99.90
14057;DHT22;7103;54.300;10.180;2022-12-29T18:26:16;8.60;99.90
14057;DHT22;7103;54.300;10.180;2022-12-29T18:28:51;8.60;99.90
14057;DHT22;7103;54.300;10.180;2022-12-29T18:31:24;8.50;99.90
14057;DHT22;7103;54.300;10.180;2022-12-29T18:33:53;8.50;99.90
14057;DHT22;7103;54.300;10.180;2022-12-29T18:36:21;8.50;99.90
14057;DHT22;7103;54.300;10.180;2022-12-29T18:38:48;8.50;99.90
14057;DHT22;7103;54.300;10.180;2022-12-29T18:43:46;8.50;99.90
14057;DHT22;7103;54.300;10.180;2022-12-29T18:46:13;8.50;99.90